sensor_id;sensor_type;location;lat;lon;timestamp;P1;durP1;ratioP1;P2;durP2;ratioP2
53271;SDS011;39160;48.580;7.756;2023-07-29T00:01:33;1.92;;;1.30;;
53271;SDS011;39160;48.580;7.756;2023-07-29T00:06:24;4.45;;;1.75;;
53271;SDS011;39160;48.580;7.756;2023-07-29T00:11:15;2.50;;;1.55;;
53271;SDS011;39160;48.580;7.756;2023-07-29T00:16:06;1.92;;;1.38;;
53271;SDS011;39160;48.580;7.756;2023-07-29T00:20:56;2.08;;;1.20;;
53271;SDS011;39160;48.580;7.756;2023-07-29T00:25:47;3.58;;;2.05;;
53271;SDS011;39160;48.580;7.756;2023-07-29T00:30:38;2.78;;;1.15;;
53271;SDS011;39160;48.580;7.756;2023-07-29T00:35:29;2.65;;;1.45;;
53271;SDS011;39160;48.580;7.756;2023-07-29T00:40:19;2.30;;;1.33;;
53271;SDS011;39160;48.580;7.756;2023-07-29T00:45:11;1.92;;;1.30;;
53271;SDS011;39160;48.580;7.756;2023-07-29T00:50:02;1.60;;;1.13;;
53271;SDS011;39160;48.580;7.756;2023-07-29T00:54:54;2.90;;;1.52;;
53271;SDS011;39160;48.580;7.756;2023-07-29T00:59:44;3.65;;;1.50;;
53271;SDS011;39160;48.580;7.756;2023-07-29T01:04:35;2.10;;;1.50;;
53271;SDS011;39160;48.580;7.756;2023-07-29T01:19:48;1.75;;;1.33;;
53271;SDS011;39160;48.580;7.756;2023-07-29T01:24:45;3.10;;;1.40;;
53271;SDS011;39160;48.580;7.756;2023-07-29T01:29:35;5.50;;;1.88;;
53271;SDS011;39160;48.580;7.756;2023-07-29T01:34:28;3.40;;;1.83;;
53271;SDS011;39160;48.580;7.756;2023-07-29T01:39:22;2.67;;;1.55;;
53271;SDS011;39160;48.580;7.756;2023-07-29T01:49:08;1.92;;;1.10;;
53271;SDS011;39160;48.580;7.756;2023-07-29T01:53:59;1.45;;;1.15;;
53271;SDS011;39160;48.580;7.756;2023-07-29T01:58:50;1.42;;;1.15;;
53271;SDS011;39160;48.580;7.756;2023-07-29T02:03:40;3.00;;;1.55;;
53271;SDS011;39160;48.580;7.756;2023-07-29T02:08:31;3.67;;;1.25;;
53271;SDS011;39160;48.580;7.756;2023-07-29T02:13:21;3.25;;;1.40;;
53271;SDS011;39160;48.580;7.756;2023-07-29T02:18:12;2.13;;;1.10;;
53271;SDS011;39160;48.580;7.756;2023-07-29T02:23:03;1.55;;;1.13;;
53271;SDS011;39160;48.580;7.756;2023-07-29T02:27:53;4.07;;;1.25;;
53271;SDS011;39160;48.580;7.756;2023-07-29T02:32:44;2.30;;;1.15;;
53271;SDS011;39160;48.580;7.756;2023-07-29T02:37:35;2.88;;;1.20;;
53271;SDS011;39160;48.580;7.756;2023-07-29T02:42:25;3.28;;;1.40;;
53271;SDS011;39160;48.580;7.756;2023-07-29T02:47:16;2.35;;;1.45;;
53271;SDS011;39160;48.580;7.756;2023-07-29T02:52:06;1.50;;;1.10;;
53271;SDS011;39160;48.580;7.756;2023-07-29T02:56:57;2.60;;;1.33;;
53271;SDS011;39160;48.580;7.756;2023-07-29T03:01:48;1.42;;;0.90;;
53271;SDS011;39160;48.580;7.756;2023-07-29T03:06:39;2.30;;;1.80;;
53271;SDS011;39160;48.580;7.756;2023-07-29T03:11:30;1.95;;;1.38;;
53271;SDS011;39160;48.580;7.756;2023-07-29T03:16:21;3.17;;;1.30;;
53271;SDS011;39160;48.580;7.756;2023-07-29T03:21:12;1.92;;;1.08;;
53271;SDS011;39160;48.580;7.756;2023-07-29T03:26:03;1.70;;;1.20;;
53271;SDS011;39160;48.580;7.756;2023-07-29T03:30:59;3.15;;;1.40;;
53271;SDS011;39160;48.580;7.756;2023-07-29T03:35:50;1.92;;;1.08;;
53271;SDS011;39160;48.580;7.756;2023-07-29T03:40:41;2.28;;;1.58;;
53271;SDS011;39160;48.580;7.756;2023-07-29T03:45:32;2.58;;;1.10;;
53271;SDS011;39160;48.580;7.756;2023-07-29T03:50:24;2.15;;;1.27;;
53271;SDS011;39160;48.580;7.756;2023-07-29T03:55:14;2.13;;;1.30;;
53271;SDS011;39160;48.580;7.756;2023-07-29T04:00:05;1.10;;;0.90;;
53271;SDS011;39160;48.580;7.756;2023-07-29T04:04:56;1.73;;;1.20;;
53271;SDS011;39160;48.580;7.756;2023-07-29T04:09:47;2.13;;;1.42;;
53271;SDS011;39160;48.580;7.756;2023-07-29T04:14:39;2.55;;;1.00;;
53271;SDS011;39160;48.580;7.756;2023-07-29T04:19:29;3.38;;;1.17;;
53271;SDS011;39160;48.580;7.756;2023-07-29T04:24:20;1.90;;;1.20;;
53271;SDS011;39160;48.580;7.756;2023-07-29T04:29:13;1.50;;;1.00;;
53271;SDS011;39160;48.580;7.756;2023-07-29T04:34:04;3.05;;;1.40;;
53271;SDS011;39160;48.580;7.756;2023-07-29T04:38:55;4.63;;;1.45;;
53271;SDS011;39160;48.580;7.756;2023-07-29T04:43:46;3.17;;;1.40;;
53271;SDS011;39160;48.580;7.756;2023-07-29T04:48:36;2.35;;;1.40;;
53271;SDS011;39160;48.580;7.756;2023-07-29T04:53:27;3.03;;;2.10;;
53271;SDS011;39160;48.580;7.756;2023-07-29T04:58:18;1.88;;;1.40;;
53271;SDS011;39160;48.580;7.756;2023-07-29T05:03:08;2.03;;;1.35;;
53271;SDS011;39160;48.580;7.756;2023-07-29T05:07:59;1.88;;;1.10;;
53271;SDS011;39160;48.580;7.756;2023-07-29T05:12:49;2.90;;;1.60;;
53271;SDS011;39160;48.580;7.756;2023-07-29T05:17:40;2.25;;;1.27;;
53271;SDS011;39160;48.580;7.756;2023-07-29T05:22:34;2.75;;;1.50;;
53271;SDS011;39160;48.580;7.756;2023-07-29T05:27:25;3.03;;;1.33;;
53271;SDS011;39160;48.580;7.756;2023-07-29T05:32:15;3.42;;;1.45;;
53271;SDS011;39160;48.580;7.756;2023-07-29T05:37:06;2.42;;;1.42;;
53271;SDS011;39160;48.580;7.756;2023-07-29T05:41:57;1.30;;;1.10;;
53271;SDS011;39160;48.580;7.756;2023-07-29T05:46:48;2.70;;;1.50;;
53271;SDS011;39160;48.580;7.756;2023-07-29T05:51:42;1.83;;;1.27;;
53271;SDS011;39160;48.580;7.756;2023-07-29T05:56:33;3.00;;;1.30;;
53271;SDS011;39160;48.580;7.756;2023-07-29T06:01:25;3.33;;;1.55;;
53271;SDS011;39160;48.580;7.756;2023-07-29T06:06:16;2.05;;;1.00;;
53271;SDS011;39160;48.580;7.756;2023-07-29T06:11:07;2.30;;;1.13;;
53271;SDS011;39160;48.580;7.756;2023-07-29T06:15:58;3.70;;;1.20;;
53271;SDS011;39160;48.580;7.756;2023-07-29T06:20:48;2.67;;;1.23;;
53271;SDS011;39160;48.580;7.756;2023-07-29T06:25:42;3.92;;;1.70;;
53271;SDS011;39160;48.580;7.756;2023-07-29T06:30:34;2.37;;;1.70;;
53271;SDS011;39160;48.580;7.756;2023-07-29T06:35:25;2.35;;;1.15;;
53271;SDS011;39160;48.580;7.756;2023-07-29T06:40:15;2.67;;;1.13;;
53271;SDS011;39160;48.580;7.756;2023-07-29T06:45:07;2.00;;;1.02;;
53271;SDS011;39160;48.580;7.756;2023-07-29T06:49:58;2.22;;;1.10;;
53271;SDS011;39160;48.580;7.756;2023-07-29T06:54:49;2.78;;;1.70;;
53271;SDS011;39160;48.580;7.756;2023-07-29T06:59:40;1.42;;;0.93;;
53271;SDS011;39160;48.580;7.756;2023-07-29T07:04:30;2.13;;;1.40;;
53271;SDS011;39160;48.580;7.756;2023-07-29T07:09:22;1.38;;;0.70;;
53271;SDS011;39160;48.580;7.756;2023-07-29T07:14:13;1.35;;;0.85;;
53271;SDS011;39160;48.580;7.756;2023-07-29T07:19:04;1.50;;;1.08;;
53271;SDS011;39160;48.580;7.756;2023-07-29T07:23:55;1.42;;;0.88;;
53271;SDS011;39160;48.580;7.756;2023-07-29T07:28:46;2.17;;;1.38;;
53271;SDS011;39160;48.580;7.756;2023-07-29T07:33:37;1.10;;;0.70;;
53271;SDS011;39160;48.580;7.756;2023-07-29T07:38:28;2.13;;;0.90;;
53271;SDS011;39160;48.580;7.756;2023-07-29T07:43:19;1.85;;;1.00;;
53271;SDS011;39160;48.580;7.756;2023-07-29T07:48:10;1.00;;;0.77;;
53271;SDS011;39160;48.580;7.756;2023-07-29T07:53:03;1.63;;;1.10;;
53271;SDS011;39160;48.580;7.756;2023-07-29T07:57:54;2.25;;;0.70;;
53271;SDS011;39160;48.580;7.756;2023-07-29T08:02:46;2.38;;;0.90;;
53271;SDS011;39160;48.580;7.756;2023-07-29T08:07:37;2.20;;;0.85;;
53271;SDS011;39160;48.580;7.756;2023-07-29T08:12:27;2.38;;;0.95;;
53271;SDS011;39160;48.580;7.756;2023-07-29T08:17:18;1.70;;;1.10;;
53271;SDS011;39160;48.580;7.756;2023-07-29T08:22:09;1.40;;;0.85;;
53271;SDS011;39160;48.580;7.756;2023-07-29T08:27:00;1.73;;;1.23;;
53271;SDS011;39160;48.580;7.756;2023-07-29T08:31:50;1.67;;;1.13;;
53271;SDS011;39160;48.580;7.756;2023-07-29T08:36:41;1.20;;;0.77;;
53271;SDS011;39160;48.580;7.756;2023-07-29T08:41:35;1.88;;;0.90;;
53271;SDS011;39160;48.580;7.756;2023-07-29T08:46:31;2.50;;;1.10;;
53271;SDS011;39160;48.580;7.756;2023-07-29T08:51:23;3.72;;;0.90;;
53271;SDS011;39160;48.580;7.756;2023-07-29T08:56:15;2.05;;;1.25;;
53271;SDS011;39160;48.580;7.756;2023-07-29T09:01:06;1.98;;;1.10;;
53271;SDS011;39160;48.580;7.756;2023-07-29T09:05:57;2.70;;;0.73;;
53271;SDS011;39160;48.580;7.756;2023-07-29T09:10:48;1.00;;;0.77;;
53271;SDS011;39160;48.580;7.756;2023-07-29T09:15:39;2.30;;;1.15;;
53271;SDS011;39160;48.580;7.756;2023-07-29T09:20:32;1.42;;;1.00;;
53271;SDS011;39160;48.580;7.756;2023-07-29T09:25:24;1.23;;;0.70;;
53271;SDS011;39160;48.580;7.756;2023-07-29T09:30:16;2.10;;;1.10;;
53271;SDS011;39160;48.580;7.756;2023-07-29T09:35:11;2.72;;;0.70;;
53271;SDS011;39160;48.580;7.756;2023-07-29T09:40:02;1.98;;;0.85;;
53271;SDS011;39160;48.580;7.756;2023-07-29T09:44:53;1.25;;;0.75;;
53271;SDS011;39160;48.580;7.756;2023-07-29T09:49:43;1.48;;;0.90;;
53271;SDS011;39160;48.580;7.756;2023-07-29T09:54:35;1.23;;;0.88;;
53271;SDS011;39160;48.580;7.756;2023-07-29T09:59:26;2.15;;;0.70;;
53271;SDS011;39160;48.580;7.756;2023-07-29T10:04:17;0.88;;;0.52;;
53271;SDS011;39160;48.580;7.756;2023-07-29T10:09:08;0.85;;;0.70;;
53271;SDS011;39160;48.580;7.756;2023-07-29T10:14:02;1.03;;;0.60;;
53271;SDS011;39160;48.580;7.756;2023-07-29T10:18:53;1.10;;;0.80;;
53271;SDS011;39160;48.580;7.756;2023-07-29T10:23:46;1.70;;;0.77;;
53271;SDS011;39160;48.580;7.756;2023-07-29T10:28:40;1.38;;;0.90;;
53271;SDS011;39160;48.580;7.756;2023-07-29T10:33:36;2.03;;;0.90;;
53271;SDS011;39160;48.580;7.756;2023-07-29T10:38:28;1.15;;;0.68;;
53271;SDS011;39160;48.580;7.756;2023-07-29T10:43:25;0.63;;;0.57;;
53271;SDS011;39160;48.580;7.756;2023-07-29T10:53:29;3.25;;;0.90;;
53271;SDS011;39160;48.580;7.756;2023-07-29T10:58:20;1.40;;;0.88;;
53271;SDS011;39160;48.580;7.756;2023-07-29T11:03:12;1.98;;;0.98;;
53271;SDS011;39160;48.580;7.756;2023-07-29T11:08:15;2.78;;;1.77;;
53271;SDS011;39160;48.580;7.756;2023-07-29T11:13:13;1.25;;;0.80;;
53271;SDS011;39160;48.580;7.756;2023-07-29T11:18:04;2.08;;;1.10;;
53271;SDS011;39160;48.580;7.756;2023-07-29T11:22:56;1.73;;;1.20;;
53271;SDS011;39160;48.580;7.756;2023-07-29T11:27:49;2.28;;;1.17;;
53271;SDS011;39160;48.580;7.756;2023-07-29T11:32:44;1.35;;;0.80;;
53271;SDS011;39160;48.580;7.756;2023-07-29T11:37:36;2.65;;;0.98;;
53271;SDS011;39160;48.580;7.756;2023-07-29T11:42:27;1.63;;;1.10;;
53271;SDS011;39160;48.580;7.756;2023-07-29T11:47:18;1.77;;;1.20;;
53271;SDS011;39160;48.580;7.756;2023-07-29T11:52:09;1.60;;;0.93;;
53271;SDS011;39160;48.580;7.756;2023-07-29T11:57:01;1.65;;;1.25;;
53271;SDS011;39160;48.580;7.756;2023-07-29T12:01:53;1.40;;;1.27;;
53271;SDS011;39160;48.580;7.756;2023-07-29T12:06:44;2.92;;;1.10;;
53271;SDS011;39160;48.580;7.756;2023-07-29T12:11:35;2.08;;;1.23;;
53271;SDS011;39160;48.580;7.756;2023-07-29T12:16:29;2.60;;;1.17;;
53271;SDS011;39160;48.580;7.756;2023-07-29T12:21:24;2.97;;;1.50;;
53271;SDS011;39160;48.580;7.756;2023-07-29T12:26:15;1.20;;;1.00;;
53271;SDS011;39160;48.580;7.756;2023-07-29T12:31:07;1.92;;;0.73;;
53271;SDS011;39160;48.580;7.756;2023-07-29T12:35:58;5.28;;;1.38;;
53271;SDS011;39160;48.580;7.756;2023-07-29T12:40:49;1.70;;;1.00;;
53271;SDS011;39160;48.580;7.756;2023-07-29T12:45:39;2.55;;;1.05;;
53271;SDS011;39160;48.580;7.756;2023-07-29T12:50:31;1.42;;;1.05;;
53271;SDS011;39160;48.580;7.756;2023-07-29T12:55:22;1.73;;;1.33;;
53271;SDS011;39160;48.580;7.756;2023-07-29T13:00:13;1.65;;;1.00;;
53271;SDS011;39160;48.580;7.756;2023-07-29T13:05:03;1.50;;;1.00;;
53271;SDS011;39160;48.580;7.756;2023-07-29T13:09:54;1.05;;;0.90;;
53271;SDS011;39160;48.580;7.756;2023-07-29T13:14:45;1.88;;;1.30;;
53271;SDS011;39160;48.580;7.756;2023-07-29T13:19:36;1.88;;;1.00;;
53271;SDS011;39160;48.580;7.756;2023-07-29T13:24:26;2.70;;;1.27;;
53271;SDS011;39160;48.580;7.756;2023-07-29T13:29:17;2.15;;;1.23;;
53271;SDS011;39160;48.580;7.756;2023-07-29T13:34:07;2.72;;;1.35;;
53271;SDS011;39160;48.580;7.756;2023-07-29T13:38:58;2.55;;;1.15;;
53271;SDS011;39160;48.580;7.756;2023-07-29T13:43:48;1.63;;;1.00;;
53271;SDS011;39160;48.580;7.756;2023-07-29T13:48:39;2.30;;;1.10;;
53271;SDS011;39160;48.580;7.756;2023-07-29T13:53:30;1.85;;;1.38;;
53271;SDS011;39160;48.580;7.756;2023-07-29T13:58:20;2.95;;;1.30;;
53271;SDS011;39160;48.580;7.756;2023-07-29T14:03:11;3.20;;;1.30;;
53271;SDS011;39160;48.580;7.756;2023-07-29T14:08:01;2.35;;;1.33;;
53271;SDS011;39160;48.580;7.756;2023-07-29T14:12:52;3.92;;;1.42;;
53271;SDS011;39160;48.580;7.756;2023-07-29T14:17:43;1.90;;;1.30;;
53271;SDS011;39160;48.580;7.756;2023-07-29T14:22:35;1.88;;;1.25;;
53271;SDS011;39160;48.580;7.756;2023-07-29T14:27:26;1.40;;;1.20;;
53271;SDS011;39160;48.580;7.756;2023-07-29T14:32:16;2.95;;;1.50;;
53271;SDS011;39160;48.580;7.756;2023-07-29T14:37:07;1.77;;;1.23;;
53271;SDS011;39160;48.580;7.756;2023-07-29T14:41:58;1.25;;;0.95;;
53271;SDS011;39160;48.580;7.756;2023-07-29T14:46:48;2.22;;;1.23;;
53271;SDS011;39160;48.580;7.756;2023-07-29T14:51:39;1.30;;;1.20;;
53271;SDS011;39160;48.580;7.756;2023-07-29T14:56:29;2.67;;;1.27;;
53271;SDS011;39160;48.580;7.756;2023-07-29T15:01:20;2.05;;;1.25;;
53271;SDS011;39160;48.580;7.756;2023-07-29T15:06:10;2.08;;;1.58;;
53271;SDS011;39160;48.580;7.756;2023-07-29T15:11:01;1.73;;;1.38;;
53271;SDS011;39160;48.580;7.756;2023-07-29T15:15:52;2.92;;;1.27;;
53271;SDS011;39160;48.580;7.756;2023-07-29T15:20:43;4.18;;;1.42;;
53271;SDS011;39160;48.580;7.756;2023-07-29T15:25:34;2.67;;;1.13;;
53271;SDS011;39160;48.580;7.756;2023-07-29T15:30:24;1.95;;;1.00;;
53271;SDS011;39160;48.580;7.756;2023-07-29T15:35:15;1.15;;;0.82;;
53271;SDS011;39160;48.580;7.756;2023-07-29T15:40:06;2.33;;;1.17;;
53271;SDS011;39160;48.580;7.756;2023-07-29T15:44:57;1.50;;;1.35;;
53271;SDS011;39160;48.580;7.756;2023-07-29T15:49:48;1.70;;;1.20;;
53271;SDS011;39160;48.580;7.756;2023-07-29T15:54:39;2.03;;;1.33;;
53271;SDS011;39160;48.580;7.756;2023-07-29T15:59:30;5.35;;;3.05;;
53271;SDS011;39160;48.580;7.756;2023-07-29T16:04:20;2.50;;;1.33;;
53271;SDS011;39160;48.580;7.756;2023-07-29T16:09:11;1.75;;;1.30;;
53271;SDS011;39160;48.580;7.756;2023-07-29T16:14:01;3.30;;;1.60;;
53271;SDS011;39160;48.580;7.756;2023-07-29T16:18:52;4.10;;;1.55;;
53271;SDS011;39160;48.580;7.756;2023-07-29T16:23:43;3.13;;;1.35;;
53271;SDS011;39160;48.580;7.756;2023-07-29T16:28:33;4.20;;;1.13;;
53271;SDS011;39160;48.580;7.756;2023-07-29T16:33:24;1.75;;;1.42;;
53271;SDS011;39160;48.580;7.756;2023-07-29T16:38:14;1.95;;;1.23;;
53271;SDS011;39160;48.580;7.756;2023-07-29T16:43:05;1.67;;;1.42;;
53271;SDS011;39160;48.580;7.756;2023-07-29T16:47:56;3.78;;;1.75;;
53271;SDS011;39160;48.580;7.756;2023-07-29T16:52:46;1.92;;;1.25;;
53271;SDS011;39160;48.580;7.756;2023-07-29T16:57:39;2.35;;;1.42;;
53271;SDS011;39160;48.580;7.756;2023-07-29T17:02:29;1.70;;;1.10;;
53271;SDS011;39160;48.580;7.756;2023-07-29T17:07:20;1.90;;;1.27;;
53271;SDS011;39160;48.580;7.756;2023-07-29T17:12:11;1.80;;;1.15;;
53271;SDS011;39160;48.580;7.756;2023-07-29T17:17:02;1.83;;;1.27;;
53271;SDS011;39160;48.580;7.756;2023-07-29T17:21:52;2.15;;;1.17;;
53271;SDS011;39160;48.580;7.756;2023-07-29T17:26:43;1.98;;;1.70;;
53271;SDS011;39160;48.580;7.756;2023-07-29T17:31:33;4.00;;;1.10;;
53271;SDS011;39160;48.580;7.756;2023-07-29T17:36:24;2.55;;;1.30;;
53271;SDS011;39160;48.580;7.756;2023-07-29T17:41:15;3.88;;;1.20;;
53271;SDS011;39160;48.580;7.756;2023-07-29T17:46:05;2.38;;;1.33;;
53271;SDS011;39160;48.580;7.756;2023-07-29T17:50:56;2.63;;;1.80;;
53271;SDS011;39160;48.580;7.756;2023-07-29T17:55:46;3.42;;;1.67;;
53271;SDS011;39160;48.580;7.756;2023-07-29T18:00:37;3.25;;;2.20;;
53271;SDS011;39160;48.580;7.756;2023-07-29T18:05:28;3.28;;;1.80;;
53271;SDS011;39160;48.580;7.756;2023-07-29T18:10:19;3.10;;;1.45;;
53271;SDS011;39160;48.580;7.756;2023-07-29T18:15:09;2.25;;;1.40;;
53271;SDS011;39160;48.580;7.756;2023-07-29T18:20:01;2.95;;;1.67;;
53271;SDS011;39160;48.580;7.756;2023-07-29T18:24:51;3.47;;;2.35;;
53271;SDS011;39160;48.580;7.756;2023-07-29T18:29:42;2.50;;;1.73;;
53271;SDS011;39160;48.580;7.756;2023-07-29T18:34:33;3.03;;;1.80;;
53271;SDS011;39160;48.580;7.756;2023-07-29T18:39:23;3.55;;;2.00;;
53271;SDS011;39160;48.580;7.756;2023-07-29T18:44:14;2.38;;;1.48;;
53271;SDS011;39160;48.580;7.756;2023-07-29T18:49:05;2.45;;;1.55;;
53271;SDS011;39160;48.580;7.756;2023-07-29T18:53:58;2.67;;;1.73;;
53271;SDS011;39160;48.580;7.756;2023-07-29T18:58:48;2.53;;;1.63;;
53271;SDS011;39160;48.580;7.756;2023-07-29T19:03:39;2.33;;;1.38;;
53271;SDS011;39160;48.580;7.756;2023-07-29T19:08:31;2.40;;;1.63;;
53271;SDS011;39160;48.580;7.756;2023-07-29T19:13:22;2.80;;;1.70;;
53271;SDS011;39160;48.580;7.756;2023-07-29T19:18:12;2.58;;;1.70;;
53271;SDS011;39160;48.580;7.756;2023-07-29T19:23:03;3.20;;;1.98;;
53271;SDS011;39160;48.580;7.756;2023-07-29T19:27:54;4.25;;;1.85;;
53271;SDS011;39160;48.580;7.756;2023-07-29T19:32:44;3.58;;;2.03;;
53271;SDS011;39160;48.580;7.756;2023-07-29T19:37:35;2.58;;;1.50;;
53271;SDS011;39160;48.580;7.756;2023-07-29T19:42:26;2.85;;;1.63;;
53271;SDS011;39160;48.580;7.756;2023-07-29T19:47:16;3.22;;;2.20;;
53271;SDS011;39160;48.580;7.756;2023-07-29T19:52:07;3.40;;;2.30;;
53271;SDS011;39160;48.580;7.756;2023-07-29T19:56:58;2.55;;;1.70;;
53271;SDS011;39160;48.580;7.756;2023-07-29T20:01:49;5.40;;;2.85;;
53271;SDS011;39160;48.580;7.756;2023-07-29T20:06:39;4.07;;;2.13;;
53271;SDS011;39160;48.580;7.756;2023-07-29T20:11:30;3.55;;;2.20;;
53271;SDS011;39160;48.580;7.756;2023-07-29T20:16:20;3.78;;;2.30;;
53271;SDS011;39160;48.580;7.756;2023-07-29T20:21:13;3.97;;;2.80;;
53271;SDS011;39160;48.580;7.756;2023-07-29T20:26:04;5.28;;;2.47;;
53271;SDS011;39160;48.580;7.756;2023-07-29T20:30:55;3.58;;;2.40;;
53271;SDS011;39160;48.580;7.756;2023-07-29T20:35:56;3.13;;;2.08;;
53271;SDS011;39160;48.580;7.756;2023-07-29T20:40:50;3.90;;;2.80;;
53271;SDS011;39160;48.580;7.756;2023-07-29T20:45:44;3.97;;;2.60;;
53271;SDS011;39160;48.580;7.756;2023-07-29T20:50:39;4.20;;;2.25;;
53271;SDS011;39160;48.580;7.756;2023-07-29T20:55:30;4.75;;;2.33;;
53271;SDS011;39160;48.580;7.756;2023-07-29T21:00:21;2.45;;;1.92;;
53271;SDS011;39160;48.580;7.756;2023-07-29T21:05:11;2.97;;;2.63;;
53271;SDS011;39160;48.580;7.756;2023-07-29T21:10:02;5.57;;;2.50;;
53271;SDS011;39160;48.580;7.756;2023-07-29T21:14:53;3.38;;;2.33;;
53271;SDS011;39160;48.580;7.756;2023-07-29T21:19:44;4.07;;;2.05;;
53271;SDS011;39160;48.580;7.756;2023-07-29T21:24:34;4.68;;;2.17;;
53271;SDS011;39160;48.580;7.756;2023-07-29T21:29:26;4.45;;;2.25;;
53271;SDS011;39160;48.580;7.756;2023-07-29T21:34:16;3.60;;;2.53;;
53271;SDS011;39160;48.580;7.756;2023-07-29T21:39:07;4.60;;;2.40;;
53271;SDS011;39160;48.580;7.756;2023-07-29T21:43:58;4.38;;;2.40;;
53271;SDS011;39160;48.580;7.756;2023-07-29T21:48:48;3.78;;;2.15;;
53271;SDS011;39160;48.580;7.756;2023-07-29T21:53:39;3.40;;;2.25;;
53271;SDS011;39160;48.580;7.756;2023-07-29T21:58:30;5.20;;;2.53;;
53271;SDS011;39160;48.580;7.756;2023-07-29T22:03:20;3.88;;;2.40;;
53271;SDS011;39160;48.580;7.756;2023-07-29T22:08:11;3.40;;;2.40;;
53271;SDS011;39160;48.580;7.756;2023-07-29T22:13:02;3.13;;;1.88;;
53271;SDS011;39160;48.580;7.756;2023-07-29T22:17:52;2.17;;;1.73;;
53271;SDS011;39160;48.580;7.756;2023-07-29T22:22:43;2.25;;;1.23;;
53271;SDS011;39160;48.580;7.756;2023-07-29T22:27:33;2.53;;;1.10;;
53271;SDS011;39160;48.580;7.756;2023-07-29T22:32:24;1.92;;;0.93;;
53271;SDS011;39160;48.580;7.756;2023-07-29T22:37:14;1.02;;;0.70;;
53271;SDS011;39160;48.580;7.756;2023-07-29T22:42:05;1.15;;;0.75;;
53271;SDS011;39160;48.580;7.756;2023-07-29T22:46:56;1.05;;;0.60;;
53271;SDS011;39160;48.580;7.756;2023-07-29T22:51:47;1.50;;;0.70;;
53271;SDS011;39160;48.580;7.756;2023-07-29T22:56:37;0.75;;;0.60;;
53271;SDS011;39160;48.580;7.756;2023-07-29T23:01:28;1.77;;;0.50;;
53271;SDS011;39160;48.580;7.756;2023-07-29T23:06:19;1.08;;;0.57;;
53271;SDS011;39160;48.580;7.756;2023-07-29T23:11:10;2.03;;;1.00;;
53271;SDS011;39160;48.580;7.756;2023-07-29T23:16:00;2.05;;;0.70;;
53271;SDS011;39160;48.580;7.756;2023-07-29T23:20:51;1.05;;;0.82;;
53271;SDS011;39160;48.580;7.756;2023-07-29T23:25:42;1.20;;;0.93;;
53271;SDS011;39160;48.580;7.756;2023-07-29T23:30:33;1.67;;;0.70;;
53271;SDS011;39160;48.580;7.756;2023-07-29T23:35:24;1.85;;;1.00;;
53271;SDS011;39160;48.580;7.756;2023-07-29T23:40:15;1.10;;;0.68;;
53271;SDS011;39160;48.580;7.756;2023-07-29T23:45:05;2.05;;;1.58;;
53271;SDS011;39160;48.580;7.756;2023-07-29T23:49:56;1.10;;;0.70;;
53271;SDS011;39160;48.580;7.756;2023-07-29T23:54:47;2.78;;;1.23;;
53271;SDS011;39160;48.580;7.756;2023-07-29T23:59:37;1.48;;;1.05;;
